Time;durP1;ratioP1;P1;durP2;ratioP2;P2;SDS_P1;SDS_P2;PMS_P1;PMS_P2;Temp;Humidity;BMP_temperature;BMP_pressure;BME280_temperature;BME280_humidity;BME280_pressure;Samples;Min_cycle;Max_cycle;Signal;HPM_P1;HPM_P2
2023/03/27 00:00:31;;;;;;;23.73;10.93;;;4.90;99.90;;;;;;4144494;28;20280;-66
2023/03/27 00:02:32;;;;;;;20.60;9.37;;;4.90;99.90;;;;;;4145040;28;20280;-64
2023/03/27 00:04:33;;;;;;;23.07;9.53;;;4.90;99.90;;;;;;4144692;28;20419;-64
2023/03/27 00:06:36;;;;;;;21.57;9.90;;;5.00;99.90;;;;;;4143677;28;20337;-70
2023/03/27 00:08:37;;;;;;;23.10;10.03;;;5.00;99.90;;;;;;4144296;28;20275;-64
2023/03/27 00:10:39;;;;;;;16.60;8.50;;;5.00;99.90;;;;;;4145224;28;20267;-64
2023/03/27 00:12:43;;;;;;;19.80;9.47;;;5.00;99.90;;;;;;4144949;28;20701;-67
2023/03/27 00:14:45;;;;;;;21.40;9.53;;;5.10;99.90;;;;;;4145581;28;20275;-64
2023/03/27 00:16:46;;;;;;;15.00;7.93;;;5.00;99.90;;;;;;4145434;28;20290;-65
2023/03/27 00:18:47;;;;;;;13.43;7.90;;;5.00;99.90;;;;;;4144987;28;20259;-68
2023/03/27 00:20:48;;;;;;;17.93;9.20;;;5.00;99.90;;;;;;4149524;28;20021;-63
2023/03/27 00:22:55;;;;;;;14.87;6.97;;;5.00;99.90;;;;;;4160720;28;20689;-64
2023/03/27 00:24:56;;;;;;;18.30;7.40;;;5.00;99.90;;;;;;4160852;28;20305;-68
2023/03/27 00:26:57;;;;;;;18.30;7.10;;;5.00;99.90;;;;;;4150167;28;20334;-64
2023/03/27 00:28:58;;;;;;;19.33;7.90;;;5.00;99.90;;;;;;4145406;28;20333;-72
2023/03/27 00:30:59;;;;;;;18.73;8.37;;;5.00;99.90;;;;;;4144542;28;20272;-63
2023/03/27 00:33:01;;;;;;;15.10;7.50;;;4.90;99.90;;;;;;4150712;28;20673;-64
2023/03/27 00:35:03;;;;;;;11.53;6.37;;;4.90;99.90;;;;;;4160560;28;20328;-63
2023/03/27 00:37:04;;;;;;;14.83;7.20;;;4.80;99.90;;;;;;4161062;28;20270;-63
2023/03/27 00:39:05;;;;;;;12.43;5.87;;;4.80;99.90;;;;;;4160636;28;20337;-63
2023/03/27 00:41:07;;;;;;;7.13;3.93;;;4.80;99.90;;;;;;4160510;28;20267;-64
2023/03/27 00:43:25;;;;;;;5.77;3.00;;;4.90;99.90;;;;;;4160308;28;20286;-67
2023/03/27 00:45:31;;;;;;;7.13;3.07;;;5.10;99.90;;;;;;4161240;28;20329;-64
2023/03/27 00:47:36;;;;;;;6.40;2.57;;;5.30;99.90;;;;;;4160058;28;20274;-64
2023/03/27 00:49:37;;;;;;;6.90;2.80;;;5.40;99.90;;;;;;4160899;28;20320;-66
2023/03/27 00:51:41;;;;;;;5.53;2.27;;;5.50;99.90;;;;;;4159658;28;20258;-65
2023/03/27 00:53:44;;;;;;;2.93;2.17;;;5.60;99.90;;;;;;4158810;28;20812;-64
2023/03/27 00:55:48;;;;;;;8.10;3.80;;;5.70;99.90;;;;;;4160067;28;20274;-64
2023/03/27 00:57:56;;;;;;;6.60;3.30;;;5.70;99.90;;;;;;4160464;28;20262;-64
2023/03/27 00:59:59;;;;;;;6.97;3.17;;;5.70;99.90;;;;;;4160048;28;20282;-63
2023/03/27 01:02:02;;;;;;;7.83;3.17;;;5.70;99.90;;;;;;4160924;28;20282;-65
2023/03/27 01:04:06;;;;;;;9.43;3.40;;;5.70;99.90;;;;;;4159918;28;20348;-64
2023/03/27 01:06:09;;;;;;;4.73;3.00;;;5.70;99.90;;;;;;4158642;28;20533;-64
2023/03/27 01:08:11;;;;;;;8.97;3.90;;;5.70;99.90;;;;;;4157717;28;20087;-66
2023/03/27 01:10:13;;;;;;;6.43;3.60;;;5.60;99.90;;;;;;4157923;28;20041;-65
2023/03/27 01:12:25;;;;;;;6.50;3.70;;;5.70;99.90;;;;;;4145029;28;20402;-64
2023/03/27 01:14:26;;;;;;;6.23;2.97;;;5.70;99.90;;;;;;4144267;28;20030;-69
2023/03/27 01:16:52;;;;;;;12.07;4.47;;;5.70;99.90;;;;;;4143939;28;20037;-67
2023/03/27 01:19:15;;;;;;;6.00;3.20;;;5.70;99.90;;;;;;4143875;28;20041;-64
2023/03/27 01:21:55;;;;;;;8.13;2.03;;;5.70;99.90;;;;;;4143284;28;20037;-64
2023/03/27 01:24:21;;;;;;;4.78;2.10;;;5.80;99.90;;;;;;4134704;28;20490;-64
2023/03/27 01:26:56;;;;;;;5.67;2.13;;;5.90;99.90;;;;;;4147955;28;20068;-66
2023/03/27 01:29:24;;;;;;;6.13;2.20;;;6.00;99.90;;;;;;4144918;28;20487;-70
2023/03/27 01:31:44;;;;;;;4.10;2.40;;;6.10;99.90;;;;;;4115138;28;20049;-66
2023/03/27 01:34:02;;;;;;;5.20;3.03;;;6.10;99.90;;;;;;4143877;28;20421;-63
2023/03/27 01:36:29;;;;;;;8.33;2.50;;;6.10;99.90;;;;;;4143407;28;20096;-64
2023/03/27 01:38:58;;;;;;;5.13;2.23;;;6.10;99.90;;;;;;4143554;28;20037;-65
2023/03/27 01:41:20;;;;;;;3.90;2.27;;;6.10;99.90;;;;;;4136848;28;20477;-72
2023/03/27 01:43:34;;;;;;;5.63;2.67;;;6.20;99.90;;;;;;4151204;28;20045;-64
2023/03/27 01:45:53;;;;;;;6.47;2.20;;;6.20;99.90;;;;;;4144978;28;20479;-65
2023/03/27 01:48:03;;;;;;;5.63;2.33;;;6.20;99.90;;;;;;4143543;28;20671;-63
2023/03/27 01:50:22;;;;;;;3.20;1.83;;;6.10;99.90;;;;;;4144290;28;20084;-64
2023/03/27 01:52:28;;;;;;;7.03;1.83;;;6.10;99.90;;;;;;4143593;28;20077;-68
2023/03/27 01:54:40;;;;;;;3.40;1.57;;;6.10;99.90;;;;;;4144602;28;20045;-64
2023/03/27 01:56:54;;;;;;;4.80;2.00;;;6.10;99.90;;;;;;4143388;28;20026;-64
2023/03/27 01:59:05;;;;;;;5.73;1.50;;;6.20;99.90;;;;;;4142459;28;20067;-64
2023/03/27 02:01:08;;;;;;;3.20;1.80;;;6.20;99.90;;;;;;4143470;28;20453;-65
2023/03/27 02:03:19;;;;;;;7.80;2.30;;;6.30;99.90;;;;;;4143856;28;20038;-67
2023/03/27 02:05:39;;;;;;;4.70;1.70;;;6.50;99.90;;;;;;4150687;28;20034;-64
2023/03/27 02:07:46;;;;;;;4.72;1.77;;;6.60;99.90;;;;;;4159895;28;20115;-64
2023/03/27 02:09:54;;;;;;;4.20;1.33;;;6.70;99.90;;;;;;4160553;28;20462;-65
2023/03/27 02:12:03;;;;;;;6.10;1.80;;;6.80;99.90;;;;;;4161525;28;20025;-64
2023/03/27 02:14:11;;;;;;;2.93;1.67;;;6.80;99.90;;;;;;4163042;28;20018;-66
2023/03/27 02:16:17;;;;;;;2.57;1.27;;;6.90;99.90;;;;;;4152163;28;20553;-68
2023/03/27 02:18:30;;;;;;;3.70;1.73;;;7.10;99.90;;;;;;4147860;28;20433;-65
2023/03/27 02:20:33;;;;;;;8.27;3.07;;;7.10;99.90;;;;;;4146681;28;20037;-65
2023/03/27 02:22:34;;;;;;;3.43;1.83;;;7.20;99.90;;;;;;4146241;28;20568;-70
2023/03/27 02:24:37;;;;;;;6.20;2.43;;;7.20;99.90;;;;;;4146852;28;20065;-64
2023/03/27 02:26:38;;;;;;;2.20;1.40;;;7.30;99.90;;;;;;4148845;28;20378;-64
2023/03/27 02:28:50;;;;;;;3.80;1.47;;;7.30;99.90;;;;;;4151608;28;20034;-65
2023/03/27 02:30:57;;;;;;;5.10;1.80;;;7.20;99.90;;;;;;4146001;28;20364;-64
2023/03/27 02:33:13;;;;;;;4.10;1.70;;;7.20;99.90;;;;;;4154482;28;20034;-65
2023/03/27 02:35:33;;;;;;;7.70;1.93;;;7.10;99.90;;;;;;4158852;28;20070;-67
2023/03/27 02:37:53;;;;;;;4.77;2.27;;;7.10;99.90;;;;;;4163046;28;20531;-70
2023/03/27 02:40:13;;;;;;;5.45;2.30;;;7.00;99.90;;;;;;4162297;28;20029;-63
2023/03/27 02:42:51;;;;;;;9.05;2.50;;;7.00;99.90;;;;;;4162399;28;20091;-63
2023/03/27 02:45:01;;;;;;;5.37;2.33;;;6.90;99.90;;;;;;4162434;28;20126;-64
2023/03/27 02:47:20;;;;;;;7.90;2.00;;;6.80;99.90;;;;;;4162215;28;20485;-63
2023/03/27 02:49:32;;;;;;;4.73;2.27;;;6.90;99.90;;;;;;4162205;28;20087;-63
2023/03/27 02:51:39;;;;;;;4.47;2.00;;;6.90;99.90;;;;;;4129763;28;20034;-64
2023/03/27 02:53:46;;;;;;;4.03;2.37;;;6.90;99.90;;;;;;4129942;28;20026;-64
2023/03/27 02:55:54;;;;;;;8.33;1.77;;;6.90;99.90;;;;;;4143353;28;20049;-63
2023/03/27 02:57:59;;;;;;;4.90;2.03;;;6.90;99.90;;;;;;4152774;28;20470;-64
2023/03/27 03:00:03;;;;;;;5.13;2.83;;;6.80;99.90;;;;;;4160968;28;20060;-64
2023/03/27 03:02:11;;;;;;;3.40;2.10;;;6.80;99.90;;;;;;4161666;28;20037;-63
2023/03/27 03:04:23;;;;;;;4.13;1.57;;;6.80;99.90;;;;;;4153292;28;20080;-71
2023/03/27 03:06:28;;;;;;;5.83;2.33;;;6.70;99.90;;;;;;4147725;28;20030;-67
2023/03/27 03:08:29;;;;;;;3.63;2.10;;;6.60;99.90;;;;;;4145812;28;20034;-64
2023/03/27 03:10:32;;;;;;;3.50;2.30;;;6.50;99.90;;;;;;4145622;28;20026;-70
2023/03/27 03:12:33;;;;;;;4.60;2.63;;;6.50;99.90;;;;;;4146871;28;20029;-66
2023/03/27 03:14:38;;;;;;;4.03;2.40;;;6.40;99.90;;;;;;4145546;28;20014;-64
2023/03/27 03:16:39;;;;;;;8.57;3.10;;;6.40;99.90;;;;;;4147785;28;20426;-68
2023/03/27 03:18:41;;;;;;;5.70;2.43;;;6.40;99.90;;;;;;4161441;28;20034;-64
2023/03/27 03:20:43;;;;;;;6.83;1.80;;;6.40;99.90;;;;;;4161492;28;20025;-64
2023/03/27 03:22:44;;;;;;;4.70;2.60;;;6.30;99.90;;;;;;4161022;28;20049;-66
2023/03/27 03:24:46;;;;;;;12.33;2.47;;;6.30;99.90;;;;;;4162112;28;20095;-67
2023/03/27 03:26:51;;;;;;;5.23;2.20;;;6.30;99.90;;;;;;4148973;28;20064;-65
2023/03/27 03:28:52;;;;;;;5.50;2.30;;;6.30;99.90;;;;;;4145429;28;20080;-64
2023/03/27 03:30:57;;;;;;;3.53;2.27;;;6.20;99.90;;;;;;4151806;28;20691;-66
2023/03/27 03:32:58;;;;;;;5.90;2.30;;;6.30;99.90;;;;;;4161850;28;20451;-64
2023/03/27 03:35:00;;;;;;;3.97;2.10;;;6.20;99.90;;;;;;4161424;28;20033;-64
2023/03/27 03:37:01;;;;;;;4.40;2.43;;;6.20;99.90;;;;;;4159598;28;20037;-63
2023/03/27 03:39:04;;;;;;;5.97;2.10;;;6.20;99.90;;;;;;4147488;28;20663;-70
2023/03/27 03:41:05;;;;;;;5.47;2.23;;;6.10;99.90;;;;;;4145985;28;20026;-65
2023/03/27 03:43:06;;;;;;;6.50;2.73;;;6.10;99.90;;;;;;4145270;28;21192;-64
2023/03/27 03:45:08;;;;;;;4.53;2.10;;;6.00;99.90;;;;;;4146134;28;20112;-68
2023/03/27 03:47:09;;;;;;;5.87;2.40;;;6.00;99.90;;;;;;4145194;28;20579;-63
2023/03/27 03:49:10;;;;;;;5.83;2.00;;;5.90;99.90;;;;;;4144729;28;20030;-65
2023/03/27 03:51:12;;;;;;;4.77;2.60;;;5.90;99.90;;;;;;4149163;28;20034;-70
2023/03/27 03:53:15;;;;;;;4.67;2.70;;;5.90;99.90;;;;;;4157396;28;20060;-64
2023/03/27 03:55:16;;;;;;;4.40;2.77;;;5.90;99.90;;;;;;4154617;28;20030;-64
2023/03/27 03:57:17;;;;;;;7.07;2.73;;;5.90;99.90;;;;;;4147965;28;20474;-65
2023/03/27 03:59:18;;;;;;;7.53;2.60;;;5.80;99.90;;;;;;4145205;28;20263;-64
2023/03/27 04:01:21;;;;;;;3.80;2.10;;;5.80;99.90;;;;;;4144486;28;20096;-68
2023/03/27 04:03:25;;;;;;;4.23;2.10;;;5.80;99.90;;;;;;4144362;28;20313;-64
2023/03/27 04:05:27;;;;;;;4.70;2.53;;;5.80;99.90;;;;;;4143975;28;20401;-65
2023/03/27 04:07:30;;;;;;;5.17;2.37;;;5.80;99.90;;;;;;4144299;28;20105;-64
2023/03/27 04:09:31;;;;;;;5.73;2.40;;;5.90;99.90;;;;;;4144527;28;20684;-64
2023/03/27 04:11:32;;;;;;;7.17;2.80;;;6.00;99.90;;;;;;4143976;28;20096;-64
2023/03/27 04:13:34;;;;;;;4.97;2.80;;;6.10;99.90;;;;;;4144424;28;20840;-64
2023/03/27 04:15:35;;;;;;;6.33;2.50;;;6.10;99.90;;;;;;4144653;28;20279;-63
2023/03/27 04:17:37;;;;;;;8.57;3.13;;;6.10;99.90;;;;;;4144158;28;20088;-66
2023/03/27 04:19:38;;;;;;;5.97;3.43;;;6.10;99.90;;;;;;4144166;28;20046;-73
2023/03/27 04:21:41;;;;;;;6.00;2.70;;;6.10;99.90;;;;;;4146793;28;20271;-64
2023/03/27 04:23:44;;;;;;;8.60;2.87;;;6.00;99.90;;;;;;4150087;28;20065;-68
2023/03/27 04:25:45;;;;;;;6.40;3.43;;;6.00;99.90;;;;;;4144767;28;20068;-68
2023/03/27 04:27:50;;;;;;;6.20;2.33;;;6.10;99.90;;;;;;4143677;28;20084;-67
2023/03/27 04:29:53;;;;;;;8.40;2.57;;;6.10;99.90;;;;;;4159166;28;20030;-65
2023/03/27 04:31:54;;;;;;;5.50;2.23;;;6.00;99.90;;;;;;4142238;28;20092;-67
2023/03/27 04:33:55;;;;;;;7.77;2.40;;;6.10;99.90;;;;;;4144366;28;20024;-64
2023/03/27 04:35:59;;;;;;;6.60;2.40;;;6.10;99.90;;;;;;4142644;28;20434;-64
2023/03/27 04:38:01;;;;;;;4.93;2.33;;;6.20;99.90;;;;;;4130436;28;20433;-66
2023/03/27 04:40:03;;;;;;;5.70;2.50;;;6.20;99.90;;;;;;4127773;28;20046;-64
2023/03/27 04:42:05;;;;;;;3.93;2.43;;;6.20;99.90;;;;;;4126130;28;20197;-64
2023/03/27 04:44:06;;;;;;;6.50;2.33;;;6.20;99.90;;;;;;4147817;28;20435;-64
2023/03/27 04:46:08;;;;;;;4.10;2.33;;;6.30;99.90;;;;;;4153003;28;20041;-64
2023/03/27 04:48:09;;;;;;;8.17;2.17;;;6.30;99.90;;;;;;4158668;28;20037;-69
2023/03/27 04:50:11;;;;;;;3.60;2.00;;;6.30;99.90;;;;;;4159780;28;20378;-69
2023/03/27 04:52:13;;;;;;;5.20;2.20;;;6.30;99.90;;;;;;4158374;28;20452;-64
2023/03/27 04:54:14;;;;;;;6.20;2.17;;;6.40;99.90;;;;;;4151732;28;20444;-64
2023/03/27 04:56:16;;;;;;;8.47;2.40;;;6.30;99.90;;;;;;4157608;28;20021;-68
2023/03/27 04:58:18;;;;;;;7.30;2.50;;;6.40;99.90;;;;;;4158496;28;20052;-64
2023/03/27 05:00:22;;;;;;;7.30;2.20;;;6.40;99.90;;;;;;4159258;28;20083;-65
2023/03/27 05:02:25;;;;;;;6.60;1.93;;;6.40;99.90;;;;;;4127159;28;20060;-65
2023/03/27 05:04:27;;;;;;;5.33;2.60;;;6.40;99.90;;;;;;4127810;28;20474;-72
2023/03/27 05:06:28;;;;;;;4.83;2.47;;;6.50;99.90;;;;;;4126329;28;20034;-65
2023/03/27 05:08:30;;;;;;;3.33;1.80;;;6.50;99.90;;;;;;4127879;28;20578;-66
2023/03/27 05:10:31;;;;;;;4.17;2.00;;;6.50;99.90;;;;;;4127299;28;20482;-68
2023/03/27 05:12:32;;;;;;;4.93;2.23;;;6.50;99.90;;;;;;4127512;28;20026;-67
2023/03/27 05:14:33;;;;;;;7.43;2.53;;;6.50;99.90;;;;;;4127738;28;20474;-64
2023/03/27 05:16:34;;;;;;;5.00;2.13;;;6.50;99.90;;;;;;4128035;28;20031;-67
2023/03/27 05:18:37;;;;;;;3.37;2.13;;;6.50;99.90;;;;;;4127530;28;20037;-69
2023/03/27 05:20:38;;;;;;;5.53;2.07;;;6.50;99.90;;;;;;4127189;28;20038;-65
2023/03/27 05:22:40;;;;;;;3.70;2.53;;;6.50;99.90;;;;;;4127375;28;20837;-69
2023/03/27 05:24:41;;;;;;;6.23;2.80;;;6.40;99.90;;;;;;4127205;28;20127;-69
2023/03/27 05:26:42;;;;;;;5.63;2.20;;;6.40;99.90;;;;;;4127578;28;20081;-68
2023/03/27 05:28:43;;;;;;;7.03;3.77;;;6.50;99.90;;;;;;4126945;28;20496;-65
2023/03/27 05:30:44;;;;;;;12.70;4.20;;;6.50;99.90;;;;;;4127051;28;20046;-65
2023/03/27 05:32:47;;;;;;;4.03;2.37;;;6.50;99.90;;;;;;4126453;28;20399;-64
2023/03/27 05:34:53;;;;;;;8.53;2.30;;;6.60;99.90;;;;;;4127479;28;20050;-65
2023/03/27 05:36:54;;;;;;;7.53;3.00;;;6.60;99.90;;;;;;4126874;28;20026;-64
2023/03/27 05:38:56;;;;;;;14.20;2.50;;;6.60;99.90;;;;;;4127301;28;20080;-68
2023/03/27 05:40:58;;;;;;;9.03;2.17;;;6.60;99.90;;;;;;4127086;28;20022;-66
2023/03/27 05:43:00;;;;;;;6.03;2.57;;;6.60;99.90;;;;;;4127513;28;20018;-65
2023/03/27 05:45:01;;;;;;;5.40;2.10;;;6.70;99.90;;;;;;4130376;28;20434;-65
2023/03/27 05:47:02;;;;;;;6.63;2.20;;;6.70;99.90;;;;;;4130556;28;20034;-67
2023/03/27 05:49:03;;;;;;;3.30;1.60;;;6.70;99.90;;;;;;4130578;28;20030;-65
2023/03/27 05:51:05;;;;;;;3.13;2.33;;;6.80;99.90;;;;;;4130658;28;20108;-68
2023/03/27 05:53:11;;;;;;;6.37;2.10;;;6.80;99.90;;;;;;4130818;28;20450;-66
2023/03/27 05:55:16;;;;;;;4.37;2.00;;;6.80;99.90;;;;;;4130540;28;20071;-67
2023/03/27 05:57:18;;;;;;;3.83;2.13;;;6.70;99.90;;;;;;4130307;28;20042;-69
2023/03/27 05:59:19;;;;;;;4.37;2.60;;;6.80;99.90;;;;;;4130340;28;20034;-66
2023/03/27 06:01:22;;;;;;;4.20;1.63;;;6.80;99.90;;;;;;4130513;28;20077;-66
2023/03/27 06:03:23;;;;;;;4.37;2.07;;;6.90;99.90;;;;;;4129993;28;20365;-68
2023/03/27 06:05:26;;;;;;;3.03;2.03;;;6.90;99.90;;;;;;4130616;28;20038;-66
2023/03/27 06:07:29;;;;;;;3.83;1.93;;;6.90;99.90;;;;;;4129543;28;20042;-64
2023/03/27 06:09:31;;;;;;;6.70;2.03;;;6.90;99.90;;;;;;4130483;28;20022;-66
2023/03/27 06:11:32;;;;;;;7.43;2.53;;;6.90;99.90;;;;;;4129795;28;20104;-65
2023/03/27 06:13:34;;;;;;;4.73;2.30;;;6.90;99.90;;;;;;4130528;28;20073;-63
2023/03/27 06:15:39;;;;;;;3.30;2.00;;;6.80;99.90;;;;;;4129705;28;20066;-64
2023/03/27 06:17:42;;;;;;;4.57;2.07;;;6.80;99.90;;;;;;4130071;28;20042;-65
2023/03/27 06:19:43;;;;;;;7.73;4.33;;;6.80;99.90;;;;;;4129566;28;20034;-65
2023/03/27 06:21:45;;;;;;;7.00;2.43;;;6.70;99.90;;;;;;4129501;28;20085;-63
2023/03/27 06:23:46;;;;;;;3.83;2.40;;;6.70;99.90;;;;;;4129650;28;20372;-65
2023/03/27 06:25:47;;;;;;;6.20;2.77;;;6.70;99.90;;;;;;4128969;28;20478;-64
2023/03/27 06:27:50;;;;;;;7.53;3.63;;;6.70;99.90;;;;;;4129709;28;21404;-64
2023/03/27 06:29:51;;;;;;;4.20;2.53;;;6.80;99.90;;;;;;4129967;28;20088;-64
2023/03/27 06:31:53;;;;;;;5.07;2.10;;;6.80;99.90;;;;;;4130020;28;20046;-65
2023/03/27 06:33:55;;;;;;;5.67;2.83;;;6.90;99.90;;;;;;4129727;28;20073;-64
2023/03/27 06:35:59;;;;;;;6.00;2.40;;;6.90;99.90;;;;;;4129997;28;20042;-64
2023/03/27 06:38:03;;;;;;;4.53;1.90;;;6.90;99.90;;;;;;4129576;28;20042;-64
2023/03/27 06:40:08;;;;;;;3.70;2.20;;;6.90;99.90;;;;;;4129899;28;20042;-64
2023/03/27 06:42:10;;;;;;;11.47;3.37;;;7.00;99.90;;;;;;4129170;28;20097;-64
2023/03/27 06:44:11;;;;;;;6.37;2.80;;;7.00;99.90;;;;;;4129968;28;20086;-64
2023/03/27 06:46:12;;;;;;;6.17;2.27;;;7.00;99.90;;;;;;4129850;28;20050;-64
2023/03/27 06:48:15;;;;;;;10.20;2.23;;;7.00;99.90;;;;;;4130205;28;20022;-64
2023/03/27 06:50:17;;;;;;;5.87;1.90;;;7.00;99.90;;;;;;4129268;28;20467;-66
2023/03/27 06:52:18;;;;;;;4.10;2.50;;;7.00;99.90;;;;;;4129522;28;20042;-64
2023/03/27 06:54:19;;;;;;;7.70;2.17;;;7.00;99.90;;;;;;4129502;28;20034;-72
2023/03/27 06:56:20;;;;;;;4.43;1.80;;;7.00;99.90;;;;;;4127434;28;20038;-67
2023/03/27 06:58:22;;;;;;;4.53;2.40;;;7.10;99.90;;;;;;4129440;28;20030;-65
2023/03/27 07:00:27;;;;;;;5.03;2.40;;;7.00;99.90;;;;;;4129701;28;20023;-65
2023/03/27 07:02:28;;;;;;;4.63;1.93;;;7.10;99.90;;;;;;4129557;28;20037;-64
2023/03/27 07:04:30;;;;;;;5.87;2.90;;;7.10;99.90;;;;;;4129332;28;20088;-66
2023/03/27 07:06:31;;;;;;;3.50;1.80;;;7.10;99.90;;;;;;4129320;28;20026;-67
2023/03/27 07:08:32;;;;;;;7.90;2.17;;;7.20;99.90;;;;;;4129295;28;20441;-65
2023/03/27 07:10:34;;;;;;;7.87;2.00;;;7.20;99.90;;;;;;4129593;28;20552;-65
2023/03/27 07:12:35;;;;;;;5.53;2.30;;;7.20;99.90;;;;;;4128977;28;20433;-65
2023/03/27 07:14:36;;;;;;;5.13;2.17;;;7.30;99.90;;;;;;4129738;28;20026;-64
2023/03/27 07:16:37;;;;;;;6.13;2.40;;;7.20;99.90;;;;;;4129057;28;20072;-70
2023/03/27 07:18:40;;;;;;;4.83;2.53;;;7.20;99.90;;;;;;4129128;28;20042;-67
2023/03/27 07:20:43;;;;;;;4.60;3.00;;;7.20;99.90;;;;;;4128492;28;20088;-66
2023/03/27 07:22:44;;;;;;;4.90;2.63;;;7.20;99.90;;;;;;4129567;28;20047;-65
2023/03/27 07:24:45;;;;;;;6.63;3.20;;;7.20;99.90;;;;;;4143703;28;20099;-65
2023/03/27 07:26:46;;;;;;;4.37;2.57;;;7.20;99.90;;;;;;4128980;28;20031;-66
2023/03/27 07:28:49;;;;;;;8.40;4.27;;;7.20;99.90;;;;;;4128570;28;20030;-65
2023/03/27 07:30:50;;;;;;;5.43;2.90;;;7.10;99.90;;;;;;4128792;28;20437;-65
2023/03/27 07:32:51;;;;;;;8.17;4.03;;;7.10;99.90;;;;;;4128776;28;20109;-65
2023/03/27 07:34:53;;;;;;;5.80;3.33;;;7.10;99.90;;;;;;4128793;28;20035;-65
2023/03/27 07:36:56;;;;;;;17.67;5.43;;;7.10;99.90;;;;;;4128994;28;20093;-65
2023/03/27 07:38:57;;;;;;;9.60;4.17;;;7.10;99.90;;;;;;4129044;28;20456;-65
2023/03/27 07:41:05;;;;;;;7.37;2.73;;;7.20;99.90;;;;;;4129124;28;20089;-65
2023/03/27 07:43:06;;;;;;;4.63;2.23;;;7.20;99.90;;;;;;4128743;28;20510;-64
2023/03/27 07:45:08;;;;;;;6.83;3.07;;;7.30;99.90;;;;;;4128936;28;20398;-65
2023/03/27 07:47:09;;;;;;;13.23;2.90;;;7.40;99.90;;;;;;4128764;28;20466;-67
2023/03/27 07:49:12;;;;;;;9.60;2.83;;;7.50;99.90;;;;;;4129163;28;20038;-69
2023/03/27 07:51:13;;;;;;;9.57;2.73;;;7.60;99.90;;;;;;4128278;28;20030;-67
2023/03/27 07:53:14;;;;;;;8.23;2.87;;;7.70;99.90;;;;;;4129173;28;20039;-64
2023/03/27 07:55:17;;;;;;;4.97;2.77;;;7.70;99.90;;;;;;4128238;28;20065;-64
2023/03/27 07:57:18;;;;;;;7.90;3.03;;;7.70;99.90;;;;;;4128808;28;20038;-65
2023/03/27 07:59:20;;;;;;;6.33;2.17;;;7.70;99.90;;;;;;4128392;28;20088;-68
2023/03/27 08:01:21;;;;;;;7.87;2.73;;;7.70;99.90;;;;;;4128949;28;20049;-66
2023/03/27 08:03:24;;;;;;;4.93;2.50;;;7.70;99.90;;;;;;4128368;28;20438;-65
2023/03/27 08:05:25;;;;;;;8.10;3.23;;;7.60;99.90;;;;;;4128164;28;20030;-65
2023/03/27 08:07:26;;;;;;;5.93;3.87;;;7.60;99.90;;;;;;4128392;28;20054;-66
2023/03/27 08:09:27;;;;;;;12.87;4.00;;;7.60;99.90;;;;;;4128453;28;20042;-66
2023/03/27 08:11:29;;;;;;;8.23;4.47;;;7.70;99.90;;;;;;4128308;28;20093;-65
2023/03/27 08:13:30;;;;;;;8.73;4.23;;;7.70;99.90;;;;;;4128224;28;20104;-64
2023/03/27 08:15:31;;;;;;;9.67;4.57;;;7.60;99.90;;;;;;4128677;28;20097;-65
2023/03/27 08:17:32;;;;;;;13.37;4.47;;;7.60;99.90;;;;;;4128150;28;20026;-65
2023/03/27 08:19:33;;;;;;;9.63;4.60;;;7.60;99.90;;;;;;4128056;28;20088;-66
2023/03/27 08:21:35;;;;;;;11.67;4.93;;;7.60;99.90;;;;;;4127282;28;20038;-67
2023/03/27 08:23:37;;;;;;;5.73;3.67;;;7.60;99.90;;;;;;4128357;28;20034;-66
2023/03/27 08:25:41;;;;;;;9.47;4.23;;;7.60;99.90;;;;;;4142271;28;20072;-68
2023/03/27 08:27:43;;;;;;;8.90;3.97;;;7.60;99.90;;;;;;4127861;28;20031;-65
2023/03/27 08:29:44;;;;;;;8.03;4.17;;;7.70;99.90;;;;;;4128024;28;20092;-64
2023/03/27 08:31:46;;;;;;;5.80;3.27;;;7.80;99.90;;;;;;4142943;28;20038;-71
2023/03/27 08:33:47;;;;;;;8.07;3.20;;;7.80;99.90;;;;;;4127892;28;20026;-64
2023/03/27 08:35:49;;;;;;;10.33;2.87;;;7.90;99.90;;;;;;4127981;28;20442;-64
2023/03/27 08:37:51;;;;;;;6.50;2.80;;;8.00;99.90;;;;;;4128143;28;20085;-67
2023/03/27 08:39:57;;;;;;;9.17;3.23;;;8.10;99.90;;;;;;4142682;28;20084;-68
2023/03/27 08:42:01;;;;;;;10.87;3.77;;;8.20;99.90;;;;;;4127488;28;20478;-68
2023/03/27 08:44:05;;;;;;;13.27;4.00;;;8.30;99.90;;;;;;4127779;28;20361;-69
2023/03/27 08:46:18;;;;;;;9.43;4.23;;;8.40;99.90;;;;;;4128050;28;20071;-71
2023/03/27 08:48:28;;;;;;;7.10;3.23;;;8.40;99.90;;;;;;4128075;28;20490;-65
2023/03/27 08:50:39;;;;;;;10.38;3.42;;;8.50;99.90;;;;;;4127949;28;20084;-66
2023/03/27 08:52:42;;;;;;;8.27;3.75;;;8.50;99.90;;;;;;4127821;28;20478;-66
2023/03/27 08:54:52;;;;;;;6.97;3.23;;;8.50;99.90;;;;;;4127844;28;20073;-66
2023/03/27 08:56:53;;;;;;;9.60;4.15;;;8.50;99.90;;;;;;4127957;28;20411;-65
2023/03/27 08:58:55;;;;;;;4.83;3.17;;;8.60;99.90;;;;;;4127531;28;20080;-64
2023/03/27 09:01:05;;;;;;;7.07;3.53;;;8.50;99.90;;;;;;4127403;28;20073;-64
2023/03/27 09:03:29;;;;;;;9.88;3.80;;;8.50;99.90;;;;;;4127799;28;20085;-65
2023/03/27 09:05:45;;;;;;;9.13;4.43;;;8.60;99.90;;;;;;4126898;28;20050;-65
2023/03/27 09:08:37;;;;;;;11.10;3.37;;;8.60;99.90;;;;;;4127668;28;20162;-66
2023/03/27 09:10:47;;;;;;;13.97;3.87;;;8.60;99.90;;;;;;4127372;28;20046;-64
2023/03/27 09:12:55;;;;;;;8.98;2.35;;;8.60;99.90;;;;;;4126805;28;20059;-68
2023/03/27 09:14:56;;;;;;;5.63;2.77;;;8.60;99.90;;;;;;4127387;28;20101;-65
2023/03/27 09:17:05;;;;;;;8.40;2.40;;;8.70;99.90;;;;;;4127786;28;20441;-64
2023/03/27 09:19:30;;;;;;;4.00;2.63;;;8.70;99.90;;;;;;4126788;28;20381;-69
2023/03/27 09:21:39;;;;;;;4.13;2.13;;;8.70;99.90;;;;;;4126980;28;20038;-64
2023/03/27 09:23:42;;;;;;;3.67;2.23;;;8.70;99.90;;;;;;4127473;28;20022;-65
2023/03/27 09:25:49;;;;;;;5.07;2.63;;;8.70;99.90;;;;;;4126942;28;20039;-65
2023/03/27 09:27:52;;;;;;;8.70;3.30;;;8.70;99.90;;;;;;4127575;28;20093;-70
2023/03/27 09:30:17;;;;;;;7.33;2.60;;;8.70;99.90;;;;;;4126752;28;20081;-65
2023/03/27 09:32:18;;;;;;;4.33;3.07;;;8.70;99.90;;;;;;4127392;28;20094;-64
2023/03/27 09:34:25;;;;;;;5.17;3.40;;;8.80;99.90;;;;;;4127449;28;20430;-64
2023/03/27 09:36:27;;;;;;;5.80;2.73;;;8.90;99.90;;;;;;4127097;28;20046;-65
2023/03/27 09:38:35;;;;;;;4.80;2.63;;;8.90;99.90;;;;;;4127442;28;20014;-66
2023/03/27 09:41:05;;;;;;;4.43;2.30;;;8.90;99.90;;;;;;4127524;28;20524;-64
2023/03/27 09:43:11;;;;;;;7.20;3.00;;;9.00;99.90;;;;;;4127046;28;20478;-64
2023/03/27 09:45:12;;;;;;;7.13;2.57;;;9.00;99.90;;;;;;4126775;28;20042;-71
2023/03/27 09:47:18;;;;;;;6.57;2.90;;;9.10;99.90;;;;;;4127438;28;20026;-64
2023/03/27 09:49:20;;;;;;;6.83;3.00;;;9.10;99.90;;;;;;4126979;28;20049;-68
2023/03/27 09:51:44;;;;;;;10.33;3.37;;;9.20;99.90;;;;;;4126534;28;20092;-70
2023/03/27 09:53:58;;;;;;;5.57;2.83;;;9.20;99.90;;;;;;4127078;28;20027;-64
2023/03/27 09:56:11;;;;;;;5.93;3.30;;;9.20;99.90;;;;;;4126988;28;20073;-65
2023/03/27 09:58:29;;;;;;;7.60;3.60;;;9.20;99.90;;;;;;4127479;28;20022;-67
2023/03/27 10:00:33;;;;;;;8.10;3.10;;;9.20;99.90;;;;;;4126863;28;20462;-63
2023/03/27 10:02:36;;;;;;;5.90;3.03;;;9.20;99.90;;;;;;4127235;28;20486;-70
2023/03/27 10:04:37;;;;;;;9.77;3.80;;;9.30;99.90;;;;;;4126562;28;20080;-66
2023/03/27 10:06:46;;;;;;;5.60;2.93;;;9.40;99.90;;;;;;4141500;28;20093;-64
2023/03/27 10:08:49;;;;;;;5.37;3.20;;;9.40;99.90;;;;;;4126826;28;20073;-63
2023/03/27 10:10:56;;;;;;;7.20;3.40;;;9.40;99.90;;;;;;4126959;28;20081;-67
2023/03/27 10:13:01;;;;;;;10.37;3.57;;;9.40;99.90;;;;;;4126682;28;20427;-64
2023/03/27 10:15:05;;;;;;;9.17;3.70;;;9.40;99.90;;;;;;4126878;28;20034;-65
2023/03/27 10:17:33;;;;;;;7.27;3.43;;;9.50;99.90;;;;;;4127317;28;20046;-64
2023/03/27 10:19:38;;;;;;;7.13;3.27;;;9.50;99.90;;;;;;4127067;28;20038;-70
2023/03/27 10:21:42;;;;;;;9.13;3.30;;;9.60;99.90;;;;;;4126803;28;20085;-65
2023/03/27 10:23:48;;;;;;;6.20;3.20;;;9.60;99.90;;;;;;4126369;28;20085;-64
2023/03/27 10:25:51;;;;;;;4.53;2.93;;;9.60;99.90;;;;;;4126227;28;20495;-64
2023/03/27 10:27:53;;;;;;;8.70;3.80;;;9.70;99.90;;;;;;4127039;28;20083;-65
2023/03/27 10:29:56;;;;;;;7.40;3.00;;;9.70;99.90;;;;;;4127206;28;20038;-64
2023/03/27 10:31:59;;;;;;;4.30;2.53;;;9.80;99.90;;;;;;4144228;28;20646;-65
2023/03/27 10:34:02;;;;;;;9.73;3.27;;;9.80;99.90;;;;;;4129756;28;20034;-65
2023/03/27 10:36:05;;;;;;;10.30;3.40;;;9.90;99.90;;;;;;4129162;28;20165;-65
2023/03/27 10:38:13;;;;;;;9.00;3.40;;;9.90;99.90;;;;;;4129526;28;20035;-66
2023/03/27 10:40:18;;;;;;;9.73;4.70;;;10.00;99.90;;;;;;4128998;28;20030;-65
2023/03/27 10:42:21;;;;;;;10.53;3.07;;;10.00;99.90;;;;;;4129958;28;20034;-65
2023/03/27 10:44:27;;;;;;;7.50;3.20;;;10.10;99.90;;;;;;4128898;28;20038;-64
2023/03/27 10:46:29;;;;;;;9.70;3.03;;;10.10;99.90;;;;;;4130520;28;20441;-64
2023/03/27 10:48:49;;;;;;;7.80;2.77;;;10.30;99.90;;;;;;4128511;28;20030;-65
2023/03/27 10:50:56;;;;;;;4.47;2.30;;;10.40;99.90;;;;;;4129956;28;20030;-63
2023/03/27 10:53:18;;;;;;;16.47;5.53;;;10.50;99.90;;;;;;4129190;28;20264;-64
2023/03/27 10:55:43;;;;;;;5.97;3.03;;;10.60;99.90;;;;;;4129812;28;20076;-64
2023/03/27 10:57:50;;;;;;;6.27;2.47;;;10.70;99.90;;;;;;4129320;28;20030;-72
2023/03/27 11:00:18;;;;;;;6.47;2.60;;;10.80;99.90;;;;;;4129537;28;20363;-65